Time,TemperatureF,DewpointF,PressureIn,WindDirection,WindDirectionDegrees,WindSpeedMPH,WindSpeedGustMPH,Humidity,HourlyPrecipIn,Conditions,Clouds,dailyrainin,SolarRadiationWatts/m^2,SoftwareType,DateUTC
2013-04-13 00:04:00,38.0,13.0,29.96,South,188,4.0,9.0,35,-99.99,,,-99.99,0.000000,,2013-04-13 07:04:00,
2013-04-13 00:14:00,38.0,13.0,29.96,South,188,4.0,9.0,35,-99.99,,,-99.99,0.000000,,2013-04-13 07:14:00,
2013-04-13 00:23:00,39.0,11.0,29.95,SE,125,5.0,8.0,31,-99.99,,,-99.99,1.000000,,2013-04-13 07:23:00,
2013-04-13 00:34:00,38.0,11.0,29.95,SE,130,8.0,11.0,32,-99.99,,,-99.99,0.000000,,2013-04-13 07:34:00,
2013-04-13 00:44:00,37.0,11.0,29.95,SE,140,7.0,10.0,34,-99.99,,,-99.99,1.000000,,2013-04-13 07:44:00,
2013-04-13 00:53:00,37.0,11.0,29.95,SE,140,7.0,10.0,34,-99.99,,,-99.99,1.000000,,2013-04-13 07:53:00,
2013-04-13 01:04:00,36.0,11.0,29.95,SSE,156,8.0,12.0,35,-99.99,,,-99.99,0.000000,,2013-04-13 08:04:00,
2013-04-13 01:14:00,36.0,11.0,29.95,SE,146,7.0,10.0,36,-99.99,,,-99.99,0.000000,,2013-04-13 08:14:00,
2013-04-13 01:24:00,36.0,11.0,29.95,SE,146,7.0,10.0,36,-99.99,,,-99.99,0.000000,,2013-04-13 08:24:00,
2013-04-13 01:33:00,35.0,11.0,29.94,SE,146,8.0,10.0,37,-99.99,,,-99.99,0.000000,,2013-04-13 08:33:00,
2013-04-13 01:44:00,34.0,11.0,29.94,SE,140,8.0,11.0,38,-99.99,,,-99.99,0.000000,,2013-04-13 08:44:00,
2013-04-13 01:53:00,34.0,12.0,29.94,SSE,148,8.0,11.0,39,-99.99,,,-99.99,0.000000,,2013-04-13 08:53:00,
2013-04-13 02:04:00,34.0,12.0,29.94,SSE,155,10.0,13.0,39,-99.99,,,-99.99,0.000000,,2013-04-13 09:04:00,
2013-04-13 02:13:00,34.0,12.0,29.94,SSE,160,8.0,12.0,39,-99.99,,,-99.99,0.000000,,2013-04-13 09:13:00,
2013-04-13 02:47:00,33.0,12.0,29.94,SE,134,10.0,12.0,41,-99.99,,,-99.99,0.000000,,2013-04-13 09:47:00,
2013-04-13 02:53:00,34.0,11.0,29.93,SE,134,9.0,12.0,38,-99.99,,,-99.99,0.000000,,2013-04-13 09:53:00,
2013-04-13 03:04:00,33.0,11.0,29.92,SE,143,10.0,13.0,39,-99.99,,,-99.99,0.000000,,2013-04-13 10:04:00,
2013-04-13 03:15:00,33.0,12.0,29.92,SE,146,12.0,14.0,42,-99.99,,,-99.99,0.000000,,2013-04-13 10:15:00,
2013-04-13 03:23:00,33.0,12.0,29.92,SE,146,12.0,14.0,42,-99.99,,,-99.99,0.000000,,2013-04-13 10:23:00,
2013-04-13 03:35:00,33.0,12.0,29.91,SSE,149,10.0,14.0,41,-99.99,,,-99.99,0.000000,,2013-04-13 10:35:00,
2013-04-13 03:40:00,35.0,10.0,29.89,SE,146,8.0,11.0,35,-99.99,,,-99.99,0.000000,,2013-04-13 10:40:00,
2013-04-13 03:45:00,32.0,12.0,29.91,SSE,152,9.0,13.0,42,-99.99,,,-99.99,0.000000,,2013-04-13 10:45:00,
2013-04-13 04:00:00,33.0,13.0,29.89,South,186,8.0,10.0,43,-99.99,,,-99.99,0.000000,,2013-04-13 11:00:00,
2013-04-13 04:04:00,32.0,12.0,29.91,SSE,152,7.0,11.0,43,-99.99,,,-99.99,0.000000,,2013-04-13 11:04:00,
2013-04-13 04:12:00,34.0,11.0,29.89,SSE,152,7.0,10.0,38,-99.99,,,-99.99,0.000000,,2013-04-13 11:12:00,
2013-04-13 04:20:00,33.0,13.0,29.89,SSE,152,8.0,11.0,42,-99.99,,,-99.99,0.000000,,2013-04-13 11:20:00,
2013-04-13 04:23:00,34.0,11.0,29.89,SSE,152,7.0,10.0,38,-99.99,,,-99.99,0.000000,,2013-04-13 11:23:00,
2013-04-13 04:33:00,35.0,10.0,29.89,SE,146,8.0,11.0,35,-99.99,,,-99.99,0.000000,,2013-04-13 11:33:00,
2013-04-13 04:40:00,35.0,12.0,29.89,SSE,150,8.0,11.0,38,-99.99,,,-99.99,0.000000,,2013-04-13 11:40:00,
2013-04-13 04:53:00,33.0,13.0,29.89,South,186,8.0,10.0,43,-99.99,,,-99.99,0.000000,,2013-04-13 11:53:00,
2013-04-13 05:00:00,36.0,12.0,29.88,SSE,161,9.0,13.0,37,-99.99,,,-99.99,0.000000,,2013-04-13 12:00:00,
2013-04-13 05:14:00,33.0,13.0,29.89,SSE,152,8.0,11.0,42,-99.99,,,-99.99,0.000000,,2013-04-13 12:14:00,
2013-04-13 05:20:00,36.0,12.0,29.87,SSW,192,5.0,9.0,37,-99.99,,,-99.99,0.000000,,2013-04-13 12:20:00,
2013-04-13 05:34:00,35.0,12.0,29.89,SSE,150,8.0,11.0,38,-99.99,,,-99.99,0.000000,,2013-04-13 12:34:00,
2013-04-13 05:53:00,36.0,12.0,29.88,SSE,161,9.0,13.0,37,-99.99,,,-99.99,0.000000,,2013-04-13 12:53:00,
2013-04-13 06:14:00,36.0,12.0,29.87,SSW,192,5.0,9.0,37,-99.99,,,-99.99,0.000000,,2013-04-13 13:14:00,
2013-04-13 06:30:00,36.0,14.0,29.86,South,186,6.0,9.0,40,-99.99,,,-99.99,20.000000,,2013-04-13 13:30:00,
2013-04-13 06:40:00,38.0,13.0,29.86,SSE,164,8.0,12.0,35,-99.99,,,-99.99,35.000000,,2013-04-13 13:40:00,
2013-04-13 06:45:00,38.0,12.0,29.85,SSE,167,7.0,12.0,34,-99.99,,,-99.99,1.000000,,2013-04-13 13:45:00,
2013-04-13 06:53:00,38.0,12.0,29.85,SSE,167,7.0,12.0,34,-99.99,,,-99.99,1.000000,,2013-04-13 13:53:00,
2013-04-13 07:03:00,37.0,13.0,29.86,SSE,163,8.0,11.0,36,-99.99,,,-99.99,5.000000,,2013-04-13 14:03:00,
2013-04-13 07:13:00,36.0,14.0,29.86,South,191,7.0,9.0,40,-99.99,,,-99.99,7.000000,,2013-04-13 14:13:00,
2013-04-13 07:20:00,41.0,14.0,29.86,NNE,29,2.0,4.0,33,-99.99,,,-99.99,90.000000,,2013-04-13 14:20:00,
2013-04-13 07:23:00,36.0,14.0,29.86,South,186,6.0,9.0,40,-99.99,,,-99.99,20.000000,,2013-04-13 14:23:00,
2013-04-13 07:40:00,43.0,15.0,29.86,SSE,153,7.0,10.0,32,-99.99,,,-99.99,134.000000,,2013-04-13 14:40:00,
2013-04-13 08:00:00,47.0,14.0,29.86,SSE,167,5.0,9.0,27,-99.99,,,-99.99,181.000000,,2013-04-13 15:00:00,
2013-04-13 08:14:00,41.0,14.0,29.86,NNE,29,2.0,4.0,33,-99.99,,,-99.99,90.000000,,2013-04-13 15:14:00,
2013-04-13 08:34:00,43.0,15.0,29.86,SSE,153,7.0,10.0,32,-99.99,,,-99.99,134.000000,,2013-04-13 15:34:00,
2013-04-13 08:54:00,47.0,14.0,29.86,SSE,167,5.0,9.0,27,-99.99,,,-99.99,181.000000,,2013-04-13 15:54:00,
2013-04-13 09:14:00,50.0,12.0,29.86,South,178,6.0,9.0,22,-99.99,,,-99.99,206.000000,,2013-04-13 16:14:00,
2013-04-13 09:24:00,50.0,13.0,29.85,South,170,7.0,10.0,22,-99.99,,,-99.99,238.000000,,2013-04-13 16:24:00,
2013-04-13 09:34:00,51.0,14.0,29.85,SSE,149,8.0,13.0,22,-99.99,,,-99.99,242.000000,,2013-04-13 16:34:00,
2013-04-13 09:44:00,52.0,14.0,29.84,SE,143,10.0,14.0,21,-99.99,,,-99.99,258.000000,,2013-04-13 16:44:00,
2013-04-13 09:53:00,54.0,14.0,29.84,SSE,156,10.0,14.0,20,-99.99,,,-99.99,326.000000,,2013-04-13 16:53:00,
2013-04-13 10:00:00,58.0,17.0,29.83,South,184,8.0,14.0,20,-99.99,,,-99.99,525.000000,,2013-04-13 17:00:00,
2013-04-13 10:05:00,54.0,14.0,29.84,SSE,154,10.0,14.0,20,-99.99,,,-99.99,401.000000,,2013-04-13 17:05:00,
2013-04-13 10:19:00,55.0,15.0,29.83,SSE,168,9.0,14.0,20,-99.99,,,-99.99,362.000000,,2013-04-13 17:19:00,
2013-04-13 10:35:00,57.0,16.0,29.83,South,178,8.0,12.0,20,-99.99,,,-99.99,518.000000,,2013-04-13 17:35:00,
2013-04-13 10:43:00,58.0,17.0,29.83,South,184,8.0,14.0,20,-99.99,,,-99.99,525.000000,,2013-04-13 17:43:00,
2013-04-13 10:56:00,58.0,17.0,29.83,South,184,8.0,14.0,20,-99.99,,,-99.99,525.000000,,2013-04-13 17:56:00,
2013-04-13 11:14:00,58.0,16.0,29.81,South,190,7.0,14.0,19,-99.99,,,-99.99,530.000000,,2013-04-13 18:14:00,
2013-04-13 11:23:00,58.0,16.0,29.81,South,190,7.0,14.0,19,-99.99,,,-99.99,530.000000,,2013-04-13 18:23:00,
2013-04-13 11:32:00,59.0,17.0,29.81,SSW,200,10.0,18.0,19,-99.99,,,-99.99,528.000000,,2013-04-13 18:32:00,
2013-04-13 11:42:00,59.0,15.0,29.80,South,183,12.0,22.0,18,-99.99,,,-99.99,574.000000,,2013-04-13 18:42:00,
2013-04-13 11:52:00,59.0,17.0,29.80,SSW,197,13.0,23.0,19,-99.99,,,-99.99,547.000000,,2013-04-13 18:52:00,
2013-04-13 12:02:00,60.0,19.0,29.80,SW,232,17.0,25.0,20,-99.99,,,-99.99,492.000000,,2013-04-13 19:02:00,
2013-04-13 12:12:00,60.0,19.0,29.80,SSW,213,17.0,27.0,20,-99.99,,,-99.99,531.000000,,2013-04-13 19:12:00,
2013-04-13 12:22:00,60.0,19.0,29.80,SSW,213,17.0,27.0,20,-99.99,,,-99.99,531.000000,,2013-04-13 19:22:00,
2013-04-13 12:32:00,61.0,19.0,29.80,SW,221,18.0,28.0,20,-99.99,,,-99.99,609.000000,,2013-04-13 19:32:00,
2013-04-13 12:42:00,61.0,19.0,29.79,SW,224,19.0,30.0,20,-99.99,,,-99.99,800.000000,,2013-04-13 19:42:00,
2013-04-13 12:52:00,61.0,19.0,29.79,SW,224,19.0,30.0,20,-99.99,,,-99.99,800.000000,,2013-04-13 19:52:00,
2013-04-13 13:02:00,62.0,20.0,29.78,SW,231,20.0,29.0,20,-99.99,,,-99.99,649.000000,,2013-04-13 20:02:00,
2013-04-13 13:12:00,61.0,20.0,29.77,SW,231,22.0,32.0,20,-99.99,,,-99.99,674.000000,,2013-04-13 20:12:00,
2013-04-13 13:22:00,61.0,20.0,29.77,SW,231,22.0,32.0,20,-99.99,,,-99.99,674.000000,,2013-04-13 20:22:00,
2013-04-13 13:32:00,61.0,20.0,29.76,SW,219,20.0,30.0,20,-99.99,,,-99.99,663.000000,,2013-04-13 20:32:00,
2013-04-13 13:42:00,62.0,20.0,29.75,WSW,237,15.0,25.0,19,-99.99,,,-99.99,817.000000,,2013-04-13 20:42:00,
2013-04-13 13:52:00,62.0,20.0,29.75,WSW,237,15.0,25.0,19,-99.99,,,-99.99,817.000000,,2013-04-13 20:52:00,
2013-04-13 14:02:00,63.0,20.0,29.74,WSW,239,13.0,22.0,19,-99.99,,,-99.99,830.000000,,2013-04-13 21:02:00,
2013-04-13 14:12:00,64.0,20.0,29.73,SSW,197,13.0,28.0,18,-99.99,,,-99.99,731.000000,,2013-04-13 21:12:00,
2013-04-13 14:22:00,64.0,20.0,29.73,SSW,197,13.0,28.0,18,-99.99,,,-99.99,731.000000,,2013-04-13 21:22:00,
2013-04-13 14:32:00,64.0,20.0,29.72,SW,214,16.0,29.0,18,-99.99,,,-99.99,926.000000,,2013-04-13 21:32:00,
2013-04-13 14:43:00,66.0,20.0,29.70,SSW,208,24.0,33.0,17,-99.99,,,-99.99,956.000000,,2013-04-13 21:43:00,
2013-04-13 14:52:00,66.0,20.0,29.70,SSW,208,24.0,33.0,17,-99.99,,,-99.99,956.000000,,2013-04-13 21:52:00,
2013-04-13 15:02:00,66.0,21.0,29.69,SW,226,18.0,27.0,18,-99.99,,,-99.99,861.000000,,2013-04-13 22:02:00,
2013-04-13 15:12:00,66.0,22.0,29.69,SW,222,19.0,30.0,18,-99.99,,,-99.99,784.000000,,2013-04-13 22:12:00,
2013-04-13 15:22:00,66.0,22.0,29.69,SW,222,19.0,30.0,18,-99.99,,,-99.99,784.000000,,2013-04-13 22:22:00,
2013-04-13 15:32:00,65.0,21.0,29.69,SW,231,19.0,31.0,18,-99.99,,,-99.99,538.000000,,2013-04-13 22:32:00,
2013-04-13 15:40:00,65.0,22.0,29.68,WSW,244,19.0,31.0,19,-99.99,,,-99.99,569.000000,,2013-04-13 22:40:00,
2013-04-13 15:42:00,66.0,21.0,29.68,SW,224,19.0,29.0,18,-99.99,,,-99.99,591.000000,,2013-04-13 22:42:00,
2013-04-13 15:52:00,66.0,21.0,29.68,SW,224,19.0,29.0,18,-99.99,,,-99.99,591.000000,,2013-04-13 22:52:00,
2013-04-13 16:02:00,66.0,22.0,29.68,WSW,248,23.0,33.0,18,-99.99,,,-99.99,743.000000,,2013-04-13 23:02:00,
2013-04-13 16:12:00,67.0,22.0,29.68,WSW,249,22.0,31.0,18,-99.99,,,-99.99,720.000000,,2013-04-13 23:12:00,
2013-04-13 16:22:00,67.0,22.0,29.68,WSW,249,22.0,31.0,18,-99.99,,,-99.99,720.000000,,2013-04-13 23:22:00,
2013-04-13 16:30:00,65.0,21.0,29.69,WSW,246,27.0,35.0,19,-99.99,,,-99.99,539.000000,,2013-04-13 23:30:00,
2013-04-13 16:32:00,65.0,22.0,29.68,WSW,244,19.0,31.0,19,-99.99,,,-99.99,569.000000,,2013-04-13 23:32:00,
2013-04-13 17:02:00,65.0,22.0,29.68,WSW,258,25.0,36.0,19,-99.99,,,-99.99,569.000000,,2013-04-14 00:02:00,
2013-04-13 17:12:00,65.0,21.0,29.69,WSW,246,27.0,35.0,19,-99.99,,,-99.99,539.000000,,2013-04-14 00:12:00,
2013-04-13 17:22:00,65.0,21.0,29.69,WSW,246,27.0,35.0,19,-99.99,,,-99.99,539.000000,,2013-04-14 00:22:00,
2013-04-13 17:42:00,63.0,24.0,29.68,West,270,19.0,29.0,22,-99.99,,,-99.99,316.000000,,2013-04-14 00:42:00,
2013-04-13 17:52:00,63.0,24.0,29.68,West,270,19.0,29.0,22,-99.99,,,-99.99,316.000000,,2013-04-14 00:52:00,
2013-04-13 18:02:00,62.0,24.0,29.68,West,273,22.0,32.0,23,-99.99,,,-99.99,182.000000,,2013-04-14 01:02:00,
2013-04-13 18:12:00,61.0,24.0,29.68,West,274,21.0,29.0,24,-99.99,,,-99.99,257.000000,,2013-04-14 01:12:00,
2013-04-13 18:20:00,60.0,25.0,29.69,West,263,18.0,27.0,26,-99.99,,,-99.99,75.000000,,2013-04-14 01:20:00,
2013-04-13 18:22:00,62.0,24.0,29.68,West,274,20.0,29.0,24,-99.99,,,-99.99,295.000000,,2013-04-14 01:22:00,
2013-04-13 18:32:00,62.0,25.0,29.68,West,271,18.0,25.0,24,-99.99,,,-99.99,254.000000,,2013-04-14 01:32:00,
2013-04-13 18:42:00,61.0,25.0,29.69,West,272,18.0,27.0,25,-99.99,,,-99.99,153.000000,,2013-04-14 01:42:00,
2013-04-13 18:52:00,61.0,25.0,29.69,West,272,18.0,27.0,25,-99.99,,,-99.99,153.000000,,2013-04-14 01:52:00,
2013-04-13 19:02:00,60.0,25.0,29.69,West,263,18.0,27.0,26,-99.99,,,-99.99,75.000000,,2013-04-14 02:02:00,
2013-04-13 19:12:00,60.0,25.0,29.69,West,263,18.0,27.0,26,-99.99,,,-99.99,75.000000,,2013-04-14 02:12:00,
2013-04-13 19:42:00,58.0,23.0,29.70,West,275,15.0,20.0,26,-99.99,,,-99.99,10.000000,,2013-04-14 02:42:00,
2013-04-13 19:52:00,58.0,23.0,29.70,West,275,15.0,20.0,26,-99.99,,,-99.99,10.000000,,2013-04-14 02:52:00,
2013-04-13 20:02:00,57.0,24.0,29.72,WNW,290,20.0,30.0,27,-99.99,,,-99.99,6.000000,,2013-04-14 03:02:00,
2013-04-13 20:12:00,55.0,26.0,29.73,WNW,296,25.0,33.0,32,-99.99,,,-99.99,1.000000,,2013-04-14 03:12:00,
2013-04-13 20:22:00,55.0,26.0,29.73,WNW,296,25.0,33.0,32,-99.99,,,-99.99,1.000000,,2013-04-14 03:22:00,
2013-04-13 20:33:00,53.0,27.0,29.74,NW,306,21.0,28.0,36,-99.99,,,-99.99,0.000000,,2013-04-14 03:33:00,
2013-04-13 20:42:00,52.0,28.0,29.75,WNW,299,16.0,27.0,39,-99.99,,,-99.99,0.000000,,2013-04-14 03:42:00,
2013-04-13 20:53:00,52.0,28.0,29.75,WNW,294,15.0,22.0,39,-99.99,,,-99.99,0.000000,,2013-04-14 03:53:00,
2013-04-13 21:02:00,51.0,27.0,29.75,WNW,292,14.0,20.0,38,-99.99,,,-99.99,0.000000,,2013-04-14 04:02:00,
2013-04-13 21:12:00,50.0,25.0,29.76,WNW,288,10.0,15.0,37,-99.99,,,-99.99,0.000000,,2013-04-14 04:12:00,
2013-04-13 21:22:00,50.0,25.0,29.76,WNW,288,10.0,15.0,37,-99.99,,,-99.99,0.000000,,2013-04-14 04:22:00,
2013-04-13 21:32:00,49.0,23.0,29.76,West,281,10.0,19.0,36,-99.99,,,-99.99,0.000000,,2013-04-14 04:32:00,
2013-04-13 21:42:00,49.0,18.0,29.78,WNW,292,14.0,22.0,28,-99.99,,,-99.99,0.000000,,2013-04-14 04:42:00,
2013-04-13 21:52:00,49.0,18.0,29.78,WNW,292,14.0,22.0,28,-99.99,,,-99.99,0.000000,,2013-04-14 04:52:00,
2013-04-13 22:02:00,49.0,15.0,29.79,WNW,295,15.0,23.0,26,-99.99,,,-99.99,0.000000,,2013-04-14 05:02:00,
2013-04-13 22:12:00,48.0,15.0,29.81,North,358,3.0,14.0,26,-99.99,,,-99.99,0.000000,,2013-04-14 05:12:00,
2013-04-13 22:22:00,48.0,15.0,29.81,North,358,3.0,14.0,26,-99.99,,,-99.99,0.000000,,2013-04-14 05:22:00,
2013-04-13 22:32:00,48.0,14.0,29.81,West,272,1.0,5.0,25,-99.99,,,-99.99,0.000000,,2013-04-14 05:32:00,
2013-04-13 22:40:00,43.0,9.0,29.83,WNW,287,7.0,11.0,24,-99.99,,,-99.99,1.000000,,2013-04-14 05:40:00,
2013-04-13 22:42:00,47.0,12.0,29.82,East,94,1.0,4.0,24,-99.99,,,-99.99,0.000000,,2013-04-14 05:42:00,
2013-04-13 22:52:00,47.0,12.0,29.83,North,6,5.0,10.0,24,-99.99,,,-99.99,0.000000,,2013-04-14 05:52:00,
2013-04-13 23:02:00,45.0,11.0,29.83,NNW,330,3.0,9.0,25,-99.99,,,-99.99,0.000000,,2013-04-14 06:02:00,
2013-04-13 23:12:00,45.0,11.0,29.83,West,273,2.0,6.0,25,-99.99,,,-99.99,0.000000,,2013-04-14 06:12:00,
2013-04-13 23:22:00,44.0,9.0,29.84,West,266,6.0,10.0,23,-99.99,,,-99.99,0.000000,,2013-04-14 06:22:00,
2013-04-13 23:32:00,43.0,9.0,29.83,WNW,287,7.0,11.0,24,-99.99,,,-99.99,1.000000,,2013-04-14 06:32:00,
2013-04-13 23:52:00,44.0,6.0,29.84,NW,306,11.0,15.0,20,-99.99,,,-99.99,0.000000,,2013-04-14 06:52:00,